Time;durP1;ratioP1;P1;durP2;ratioP2;P2;SDS_P1;SDS_P2;PMS_P1;PMS_P2;Temp;Humidity;BMP_temperature;BMP_pressure;BME280_temperature;BME280_humidity;BME280_pressure;Samples;Min_cycle;Max_cycle;Signal;HPM_P1;HPM_P2
2023/10/15 06:01:11;;;;;;;6.00;2.08;;;;;;;;;;4246485;27;20849;-74
2023/10/15 06:03:14;;;;;;;8.57;2.15;;;;;;;;;;4227180;28;20040;-75
2023/10/15 06:05:16;;;;;;;9.73;2.00;;;;;;;;;;4212400;28;20048;-76
2023/10/15 06:07:18;;;;;;;5.20;1.95;;;;;;;;;;4226840;28;20056;-77
2023/10/15 06:09:21;;;;;;;9.63;2.28;;;;;;;;;;4244293;27;20104;-74
2023/10/15 06:11:23;;;;;;;7.53;2.17;;;;;;;;;;4229453;28;20052;-75
2023/10/15 06:13:25;;;;;;;8.63;2.17;;;;;;;;;;4230358;28;20098;-74
2023/10/15 06:15:28;;;;;;;7.68;2.42;;;;;;;;;;4230305;28;20058;-76
2023/10/15 06:17:32;;;;;;;11.25;2.30;;;;;;;;;;4229109;28;20523;-76
2023/10/15 06:19:35;;;;;;;8.90;2.22;;;;;;;;;;4228906;28;20145;-76
2023/10/15 06:21:37;;;;;;;7.93;2.20;;;;;;;;;;4218120;28;20071;-73
2023/10/15 06:23:40;;;;;;;8.82;2.50;;;;;;;;;;4236269;28;20446;-73
2023/10/15 06:25:42;;;;;;;7.18;2.30;;;;;;;;;;4234062;27;20079;-76
2023/10/15 06:27:44;;;;;;;8.32;2.33;;;;;;;;;;4234762;28;20039;-75
2023/10/15 06:29:47;;;;;;;11.15;3.00;;;;;;;;;;4242665;28;20048;-74
2023/10/15 06:31:49;;;;;;;6.95;2.78;;;;;;;;;;4241345;28;20039;-78
2023/10/15 06:33:52;;;;;;;12.20;4.95;;;;;;;;;;4228901;28;20071;-77
2023/10/15 06:35:54;;;;;;;7.70;2.42;;;;;;;;;;4228974;28;20048;-77
2023/10/15 06:37:57;;;;;;;10.10;2.25;;;;;;;;;;4236464;28;20048;-76
2023/10/15 06:39:58;;;;;;;6.60;1.83;;;;;;;;;;4222841;28;20123;-75
2023/10/15 06:42:01;;;;;;;10.80;2.53;;;;;;;;;;4238890;28;20043;-77
2023/10/15 06:44:03;;;;;;;8.68;2.03;;;;;;;;;;4239760;27;20048;-77
2023/10/15 06:46:06;;;;;;;9.00;2.45;;;;;;;;;;4228760;28;20136;-77
2023/10/15 06:48:09;;;;;;;9.30;2.33;;;;;;;;;;4228230;28;20052;-76
2023/10/15 06:50:12;;;;;;;8.77;2.17;;;;;;;;;;4228630;28;20447;-76
2023/10/15 06:52:14;;;;;;;10.18;2.47;;;;;;;;;;4228330;28;20080;-77
2023/10/15 06:54:16;;;;;;;10.05;2.20;;;;;;;;;;4228462;28;20055;-77
2023/10/15 06:56:19;;;;;;;7.10;2.33;;;;;;;;;;4227567;28;20092;-76
2023/10/15 06:58:21;;;;;;;9.85;2.67;;;;;;;;;;4223741;28;20037;-76
2023/10/15 07:00:22;;;;;;;8.63;3.15;;;;;;;;;;4236904;28;20093;-77
2023/10/15 07:02:28;;;;;;;9.27;2.60;;;;;;;;;;4231969;28;20135;-79
2023/10/15 07:04:32;;;;;;;7.30;2.15;;;;;;;;;;4228244;28;20466;-76
2023/10/15 07:06:36;;;;;;;8.90;2.45;;;;;;;;;;4228118;28;20130;-77
2023/10/15 07:08:38;;;;;;;8.73;2.22;;;;;;;;;;4234324;28;20101;-79
2023/10/15 07:10:40;;;;;;;7.30;2.20;;;;;;;;;;4227711;28;20117;-77
2023/10/15 07:12:46;;;;;;;7.78;1.90;;;;;;;;;;4219217;28;20044;-78
2023/10/15 07:14:48;;;;;;;8.80;2.10;;;;;;;;;;4216909;28;20044;-76
2023/10/15 07:16:50;;;;;;;9.07;2.30;;;;;;;;;;4216724;28;20492;-78
2023/10/15 07:18:53;;;;;;;9.85;2.70;;;;;;;;;;4216731;28;20049;-76
2023/10/15 07:20:55;;;;;;;6.60;2.20;;;;;;;;;;4216559;28;20048;-74
2023/10/15 07:23:00;;;;;;;5.10;2.03;;;;;;;;;;4213533;28;20116;-77
2023/10/15 07:25:01;;;;;;;6.78;2.15;;;;;;;;;;4204898;28;20106;-77
2023/10/15 07:27:04;;;;;;;9.93;2.30;;;;;;;;;;4215610;28;20084;-73
2023/10/15 07:29:06;;;;;;;7.20;1.90;;;;;;;;;;4206968;28;20513;-76
2023/10/15 07:31:08;;;;;;;8.45;2.35;;;;;;;;;;4204103;28;20040;-77
2023/10/15 07:33:11;;;;;;;6.28;1.90;;;;;;;;;;4211380;28;20044;-76
2023/10/15 07:35:14;;;;;;;9.82;2.05;;;;;;;;;;4220225;28;20094;-75
2023/10/15 07:37:16;;;;;;;6.97;1.75;;;;;;;;;;4220617;28;20052;-76
2023/10/15 07:39:21;;;;;;;7.38;2.00;;;;;;;;;;4216414;28;20047;-74
2023/10/15 07:41:23;;;;;;;6.05;2.05;;;;;;;;;;4215411;28;20062;-78
2023/10/15 07:43:25;;;;;;;6.13;1.77;;;;;;;;;;4223301;28;20155;-74
2023/10/15 07:45:29;;;;;;;8.90;2.53;;;;;;;;;;4219324;28;20071;-75
2023/10/15 07:47:31;;;;;;;9.07;2.65;;;;;;;;;;4216173;28;20044;-75
2023/10/15 07:49:34;;;;;;;9.95;2.40;;;;;;;;;;4216174;28;20040;-76
2023/10/15 07:51:36;;;;;;;4.93;2.10;;;;;;;;;;4215626;28;20455;-76
2023/10/15 07:53:39;;;;;;;6.53;2.20;;;;;;;;;;4216259;28;20048;-78
2023/10/15 07:55:42;;;;;;;6.82;2.20;;;;;;;;;;4216246;28;20048;-74
2023/10/15 07:57:45;;;;;;;5.57;2.13;;;;;;;;;;4216133;28;20405;-76
2023/10/15 07:59:47;;;;;;;4.80;1.73;;;;;;;;;;4215859;28;20064;-77
2023/10/15 08:01:50;;;;;;;6.95;2.25;;;;;;;;;;4216094;28;20044;-73
2023/10/15 08:03:55;;;;;;;7.95;2.17;;;;;;;;;;4215197;28;20048;-78
2023/10/15 08:05:56;;;;;;;6.03;2.00;;;;;;;;;;4216174;28;20067;-78
2023/10/15 08:07:58;;;;;;;6.93;2.33;;;;;;;;;;4214865;28;20317;-77
2023/10/15 08:10:01;;;;;;;9.02;2.28;;;;;;;;;;4215699;28;20040;-81
2023/10/15 08:12:07;;;;;;;6.68;2.13;;;;;;;;;;4216156;28;20120;-81
2023/10/15 08:14:09;;;;;;;7.00;2.25;;;;;;;;;;4216305;28;20047;-81
2023/10/15 08:16:11;;;;;;;8.02;2.65;;;;;;;;;;4215439;28;20044;-78
2023/10/15 08:18:13;;;;;;;6.70;2.00;;;;;;;;;;4216612;28;20051;-81
2023/10/15 08:20:16;;;;;;;10.27;2.03;;;;;;;;;;4214811;28;20077;-81
2023/10/15 08:22:18;;;;;;;5.68;1.85;;;;;;;;;;4211785;28;20047;-81
2023/10/15 08:24:20;;;;;;;6.22;2.50;;;;;;;;;;4225391;28;20080;-81
2023/10/15 08:26:22;;;;;;;6.85;2.03;;;;;;;;;;4216077;28;20052;-80
2023/10/15 08:28:26;;;;;;;5.10;1.75;;;;;;;;;;4214905;28;20055;-80
2023/10/15 08:30:30;;;;;;;7.60;2.47;;;;;;;;;;4215807;28;20076;-81
2023/10/15 08:32:32;;;;;;;6.38;2.08;;;;;;;;;;4216027;28;20056;-81
2023/10/15 08:34:34;;;;;;;7.25;2.35;;;;;;;;;;4214584;28;20113;-79
2023/10/15 08:36:36;;;;;;;6.03;1.73;;;;;;;;;;4209904;28;20469;-81
2023/10/15 08:38:39;;;;;;;5.38;1.80;;;;;;;;;;4218308;28;20542;-77
2023/10/15 08:40:41;;;;;;;7.75;2.80;;;;;;;;;;4219588;28;20438;-76
2023/10/15 08:42:48;;;;;;;6.82;2.03;;;;;;;;;;4227354;28;20446;-80
2023/10/15 08:44:54;;;;;;;5.13;1.70;;;;;;;;;;4215853;28;20043;-77
2023/10/15 08:46:56;;;;;;;7.97;2.00;;;;;;;;;;4230023;28;20055;-78
2023/10/15 08:49:00;;;;;;;5.72;1.83;;;;;;;;;;4221396;28;20548;-79
2023/10/15 08:51:03;;;;;;;7.05;2.05;;;;;;;;;;4209643;28;20136;-76
2023/10/15 08:53:07;;;;;;;5.82;1.92;;;;;;;;;;4210770;28;20115;-78
2023/10/15 08:55:09;;;;;;;5.43;1.95;;;;;;;;;;4201881;28;20047;-74
2023/10/15 08:57:12;;;;;;;6.35;1.95;;;;;;;;;;4222004;28;20472;-77
2023/10/15 08:59:14;;;;;;;7.65;2.08;;;;;;;;;;4214567;28;20044;-77
2023/10/15 09:01:17;;;;;;;6.63;2.15;;;;;;;;;;4210115;28;20052;-75
2023/10/15 09:03:19;;;;;;;8.82;2.35;;;;;;;;;;4207490;28;20446;-77
2023/10/15 09:05:22;;;;;;;5.20;1.67;;;;;;;;;;4212931;28;20044;-79
2023/10/15 09:07:24;;;;;;;4.55;1.83;;;;;;;;;;4227926;28;20047;-80
2023/10/15 09:09:25;;;;;;;4.20;1.60;;;;;;;;;;4226183;28;20044;-75
2023/10/15 09:11:28;;;;;;;6.72;1.85;;;;;;;;;;4231038;28;20043;-76
2023/10/15 09:13:36;;;;;;;7.22;2.05;;;;;;;;;;4218621;28;20083;-76
2023/10/15 09:15:38;;;;;;;7.05;1.77;;;;;;;;;;4212785;28;20450;-75
2023/10/15 09:17:42;;;;;;;6.97;1.90;;;;;;;;;;4212949;28;20135;-75
2023/10/15 09:19:46;;;;;;;6.43;1.75;;;;;;;;;;4212981;28;20086;-75
2023/10/15 09:21:49;;;;;;;6.90;1.83;;;;;;;;;;4212531;28;20059;-78
2023/10/15 09:23:52;;;;;;;5.53;1.50;;;;;;;;;;4212938;28;20112;-76
2023/10/15 09:25:55;;;;;;;7.22;2.35;;;;;;;;;;4212837;28;20054;-76
2023/10/15 09:27:58;;;;;;;6.93;1.83;;;;;;;;;;4217165;28;20534;-76
2023/10/15 09:30:18;;;;;;;6.30;1.85;;;;;;;;;;4230478;28;20104;-75
2023/10/15 09:32:22;;;;;;;4.90;1.50;;;;;;;;;;4229999;28;20086;-77
2023/10/15 09:34:26;;;;;;;5.57;1.55;;;;;;;;;;4225849;28;20139;-75
2023/10/15 09:36:28;;;;;;;6.68;1.60;;;;;;;;;;4213270;28;20084;-77
2023/10/15 09:38:31;;;;;;;5.40;1.45;;;;;;;;;;4212059;28;20044;-79
2023/10/15 09:40:35;;;;;;;5.45;1.70;;;;;;;;;;4214301;28;20078;-77
2023/10/15 09:42:39;;;;;;;6.80;1.50;;;;;;;;;;4217585;28;20050;-79
2023/10/15 09:44:41;;;;;;;5.40;1.70;;;;;;;;;;4209949;28;20093;-80
2023/10/15 09:46:43;;;;;;;8.65;2.83;;;;;;;;;;4212594;28;20059;-82
2023/10/15 09:48:46;;;;;;;10.77;3.67;;;;;;;;;;4212899;28;20047;-74
2023/10/15 09:50:52;;;;;;;7.72;1.67;;;;;;;;;;4205398;28;20858;-77
2023/10/15 09:52:58;;;;;;;9.88;1.75;;;;;;;;;;4206965;28;20408;-79
2023/10/15 09:55:02;;;;;;;7.40;1.50;;;;;;;;;;4219123;28;20044;-76
2023/10/15 09:57:05;;;;;;;5.93;1.35;;;;;;;;;;4215073;28;20414;-78
2023/10/15 09:59:07;;;;;;;5.88;1.20;;;;;;;;;;4213236;28;20044;-78
2023/10/15 10:01:25;;;;;;;5.47;1.38;;;;;;;;;;4206293;28;20071;-80
2023/10/15 10:03:57;;;;;;;4.82;1.60;;;;;;;;;;4227024;28;20056;-77
2023/10/15 10:06:11;;;;;;;5.65;1.40;;;;;;;;;;4209601;28;20047;-79
2023/10/15 10:08:20;;;;;;;5.75;1.77;;;;;;;;;;4217563;28;20047;-82
2023/10/15 10:10:52;;;;;;;4.93;1.42;;;;;;;;;;4205015;28;20113;-77
2023/10/15 10:13:14;;;;;;;6.75;1.60;;;;;;;;;;4193938;28;20139;-79
2023/10/15 10:15:24;;;;;;;6.88;1.58;;;;;;;;;;4208480;28;20055;-81
2023/10/15 10:17:28;;;;;;;5.80;1.35;;;;;;;;;;4212644;28;20048;-80
2023/10/15 10:19:31;;;;;;;7.30;2.60;;;;;;;;;;4198192;28;20496;-80
2023/10/15 10:21:34;;;;;;;10.63;2.90;;;;;;;;;;4214996;28;20059;-79
2023/10/15 10:23:37;;;;;;;6.47;1.40;;;;;;;;;;4222553;28;20048;-79
2023/10/15 10:25:40;;;;;;;8.27;1.73;;;;;;;;;;4229432;28;20051;-82
2023/10/15 10:27:43;;;;;;;8.73;1.45;;;;;;;;;;4228829;28;20052;-79
2023/10/15 10:29:50;;;;;;;3.88;1.10;;;;;;;;;;4229128;28;20512;-82
2023/10/15 10:31:54;;;;;;;5.15;1.20;;;;;;;;;;4229153;28;20047;-80
2023/10/15 10:33:56;;;;;;;3.00;1.10;;;;;;;;;;4221739;28;20052;-81
2023/10/15 10:36:01;;;;;;;4.32;1.02;;;;;;;;;;4220801;28;20040;-82
2023/10/15 10:38:05;;;;;;;6.80;1.17;;;;;;;;;;4228538;28;20686;-80
2023/10/15 10:40:13;;;;;;;4.88;1.30;;;;;;;;;;4216837;28;20109;-81
2023/10/15 10:42:26;;;;;;;5.20;1.20;;;;;;;;;;4211887;28;20124;-78
2023/10/15 10:44:40;;;;;;;5.88;1.20;;;;;;;;;;4204711;28;20053;-79
2023/10/15 10:46:42;;;;;;;8.05;1.50;;;;;;;;;;4216432;28;20051;-77
2023/10/15 10:48:44;;;;;;;7.38;1.30;;;;;;;;;;4231189;28;20047;-76
2023/10/15 10:50:46;;;;;;;4.63;1.50;;;;;;;;;;4222000;28;20078;-81
2023/10/15 10:53:13;;;;;;;4.82;1.30;;;;;;;;;;4215676;28;20052;-80
2023/10/15 10:55:31;;;;;;;5.22;1.27;;;;;;;;;;4214445;28;20080;-80
2023/10/15 10:57:33;;;;;;;5.95;1.40;;;;;;;;;;4215265;28;20044;-79
2023/10/15 10:59:36;;;;;;;6.80;1.30;;;;;;;;;;4205752;28;20106;-79
2023/10/15 11:01:40;;;;;;;5.57;1.20;;;;;;;;;;4208260;28;20049;-77
2023/10/15 11:03:43;;;;;;;3.75;1.10;;;;;;;;;;4197986;28;20052;-81
2023/10/15 11:05:46;;;;;;;5.55;1.30;;;;;;;;;;4209864;28;20047;-80
2023/10/15 11:07:48;;;;;;;4.57;1.30;;;;;;;;;;4214745;28;20048;-78
2023/10/15 11:09:52;;;;;;;6.47;1.40;;;;;;;;;;4223187;28;20036;-79
2023/10/15 11:11:55;;;;;;;6.30;1.30;;;;;;;;;;4213170;28;20048;-80
2023/10/15 11:13:58;;;;;;;3.88;1.10;;;;;;;;;;4214978;28;20083;-76
2023/10/15 11:16:00;;;;;;;4.30;1.00;;;;;;;;;;4204742;28;20040;-78
2023/10/15 11:18:04;;;;;;;4.03;1.20;;;;;;;;;;4201247;28;20447;-80
2023/10/15 11:20:07;;;;;;;4.72;1.20;;;;;;;;;;4205215;28;20512;-81
2023/10/15 11:22:09;;;;;;;4.88;1.00;;;;;;;;;;4205352;28;20052;-78
2023/10/15 11:24:11;;;;;;;4.10;1.15;;;;;;;;;;4213752;28;20535;-77
2023/10/15 11:26:15;;;;;;;4.20;0.93;;;;;;;;;;4208330;28;20430;-80
2023/10/15 11:28:18;;;;;;;4.97;1.00;;;;;;;;;;4202833;28;20052;-80
2023/10/15 11:30:21;;;;;;;3.03;0.98;;;;;;;;;;4202252;28;20040;-77
2023/10/15 11:32:24;;;;;;;3.63;0.70;;;;;;;;;;4216798;28;20121;-81
2023/10/15 11:34:31;;;;;;;5.07;0.93;;;;;;;;;;4222916;28;20051;-76
2023/10/15 11:36:35;;;;;;;3.35;0.98;;;;;;;;;;4229676;28;20044;-76
2023/10/15 11:38:37;;;;;;;5.65;1.13;;;;;;;;;;4217682;28;20053;-78
2023/10/15 11:40:40;;;;;;;3.33;1.08;;;;;;;;;;4214417;28;20044;-76
2023/10/15 11:42:48;;;;;;;3.17;0.85;;;;;;;;;;4214016;28;20081;-76
2023/10/15 11:44:55;;;;;;;3.53;0.93;;;;;;;;;;4225588;28;20407;-77
2023/10/15 11:46:57;;;;;;;4.22;1.20;;;;;;;;;;4231395;28;20052;-78
2023/10/15 11:49:01;;;;;;;2.95;0.93;;;;;;;;;;4231045;28;20052;-77
2023/10/15 11:51:05;;;;;;;4.40;1.00;;;;;;;;;;4197189;28;20051;-79
2023/10/15 11:53:16;;;;;;;4.57;1.20;;;;;;;;;;4197564;28;20091;-81
2023/10/15 11:55:22;;;;;;;4.60;1.15;;;;;;;;;;4209528;28;20060;-81
2023/10/15 11:57:24;;;;;;;;;;;;;;;;;;4213789;28;20097;-77
2023/10/15 11:59:28;;;;;;;4.90;1.25;;;;;;;;;;4214041;28;19924;-78
2023/10/15 12:01:30;;;;;;;4.45;1.10;;;;;;;;;;4213626;28;20048;-76
2023/10/15 12:03:33;;;;;;;3.15;0.88;;;;;;;;;;4214075;28;20055;-77
2023/10/15 12:05:37;;;;;;;3.47;1.00;;;;;;;;;;4214273;28;20056;-77
2023/10/15 12:07:40;;;;;;;3.35;0.98;;;;;;;;;;4214220;28;20040;-80
2023/10/15 12:09:44;;;;;;;6.03;1.10;;;;;;;;;;4219044;28;20079;-80
2023/10/15 12:11:46;;;;;;;4.68;0.95;;;;;;;;;;4214517;28;20055;-78
2023/10/15 12:13:49;;;;;;;6.25;1.30;;;;;;;;;;4231474;28;20056;-78
2023/10/15 12:15:51;;;;;;;3.38;1.13;;;;;;;;;;4231046;28;20092;-78
2023/10/15 12:17:53;;;;;;;3.58;1.25;;;;;;;;;;4230629;28;20089;-80
2023/10/15 12:19:56;;;;;;;4.32;0.82;;;;;;;;;;4219104;28;20051;-79
2023/10/15 12:21:59;;;;;;;1.98;0.60;;;;;;;;;;4226917;28;20047;-80
2023/10/15 12:24:01;;;;;;;3.78;0.90;;;;;;;;;;4230800;28;20480;-79
2023/10/15 12:26:07;;;;;;;3.80;1.10;;;;;;;;;;4230526;28;20048;-79
2023/10/15 12:28:09;;;;;;;1.85;0.70;;;;;;;;;;4230477;28;20055;-79
2023/10/15 12:30:19;;;;;;;2.70;0.90;;;;;;;;;;4228292;28;20048;-81
2023/10/15 12:32:22;;;;;;;3.20;1.00;;;;;;;;;;4228874;28;20055;-80
2023/10/15 12:34:24;;;;;;;3.95;1.15;;;;;;;;;;4221195;28;20473;-81
2023/10/15 12:36:27;;;;;;;2.85;1.20;;;;;;;;;;4213592;28;20582;-80
2023/10/15 12:38:31;;;;;;;6.38;1.35;;;;;;;;;;4211335;28;20051;-81
2023/10/15 12:40:34;;;;;;;2.25;0.73;;;;;;;;;;4214323;28;20078;-81
2023/10/15 12:42:37;;;;;;;3.83;0.95;;;;;;;;;;4213613;28;20052;-81
2023/10/15 12:44:40;;;;;;;3.90;0.93;;;;;;;;;;4213476;28;20048;-79
2023/10/15 12:46:42;;;;;;;2.17;0.82;;;;;;;;;;4213579;28;20137;-80
2023/10/15 12:48:46;;;;;;;3.90;0.95;;;;;;;;;;4213402;28;20534;-78
2023/10/15 12:50:47;;;;;;;4.97;1.10;;;;;;;;;;4212993;28;20446;-80
2023/10/15 12:52:49;;;;;;;2.45;0.73;;;;;;;;;;4213466;28;20056;-78
2023/10/15 12:54:51;;;;;;;2.95;1.00;;;;;;;;;;4214644;28;20740;-80
2023/10/15 12:56:55;;;;;;;2.58;0.80;;;;;;;;;;4213732;28;20135;-79
2023/10/15 12:58:58;;;;;;;3.28;0.98;;;;;;;;;;4216313;28;20512;-81
2023/10/15 13:01:00;;;;;;;3.80;1.08;;;;;;;;;;4229099;28;20059;-81
2023/10/15 13:03:03;;;;;;;7.15;3.33;;;;;;;;;;4229717;28;20058;-81
2023/10/15 13:05:09;;;;;;;20.58;9.40;;;;;;;;;;4228501;28;20079;-77
2023/10/15 13:07:11;;;;;;;;;;;;;;;;;;4230597;28;20048;-79
2023/10/15 13:09:19;;;;;;;3.83;1.17;;;;;;;;;;4229431;28;20366;-80
2023/10/15 13:11:21;;;;;;;3.70;1.20;;;;;;;;;;4228064;28;20051;-82
2023/10/15 13:13:23;;;;;;;4.13;1.30;;;;;;;;;;4229993;28;20060;-81
2023/10/15 13:15:26;;;;;;;4.30;1.20;;;;;;;;;;4219298;28;20485;-79
2023/10/15 13:17:28;;;;;;;4.20;1.10;;;;;;;;;;4213643;28;20044;-81
2023/10/15 13:19:30;;;;;;;3.78;1.00;;;;;;;;;;4223005;28;20039;-79
2023/10/15 13:21:34;;;;;;;3.47;1.17;;;;;;;;;;4227495;28;20108;-80
2023/10/15 13:23:37;;;;;;;3.00;0.90;;;;;;;;;;4219703;28;20130;-81
2023/10/15 13:25:40;;;;;;;4.07;1.10;;;;;;;;;;4212924;28;20074;-80
2023/10/15 13:27:42;;;;;;;3.90;1.00;;;;;;;;;;4212613;28;20105;-82
2023/10/15 13:29:46;;;;;;;4.78;1.13;;;;;;;;;;4213068;28;20140;-80
2023/10/15 13:31:48;;;;;;;3.85;1.00;;;;;;;;;;4212530;28;20113;-79
2023/10/15 13:33:50;;;;;;;5.95;1.20;;;;;;;;;;4212649;28;20104;-82
2023/10/15 13:35:54;;;;;;;5.40;1.20;;;;;;;;;;4217834;28;20116;-78
2023/10/15 13:37:58;;;;;;;4.32;1.25;;;;;;;;;;4223401;28;20428;-77
2023/10/15 13:40:00;;;;;;;4.72;1.20;;;;;;;;;;4212616;28;20055;-80
2023/10/15 13:42:02;;;;;;;4.97;1.17;;;;;;;;;;4212702;28;20048;-80
2023/10/15 13:44:06;;;;;;;2.90;1.00;;;;;;;;;;4212630;28;20097;-80
2023/10/15 13:46:09;;;;;;;4.18;1.10;;;;;;;;;;4216974;28;20047;-80
2023/10/15 13:48:12;;;;;;;3.53;1.08;;;;;;;;;;4229385;28;20054;-80
2023/10/15 13:50:17;;;;;;;3.97;0.98;;;;;;;;;;4218884;28;20049;-79
2023/10/15 13:52:19;;;;;;;4.00;1.20;;;;;;;;;;4212584;28;20056;-80
2023/10/15 13:54:21;;;;;;;5.18;1.17;;;;;;;;;;4212704;28;20052;-80
2023/10/15 13:56:24;;;;;;;5.13;1.10;;;;;;;;;;4211848;28;20148;-81
2023/10/15 13:58:26;;;;;;;4.95;1.20;;;;;;;;;;4212548;28;20051;-81
2023/10/15 14:00:31;;;;;;;6.70;1.70;;;;;;;;;;4212420;28;20664;-77
2023/10/15 14:02:34;;;;;;;4.63;1.92;;;;;;;;;;4212230;28;20048;-78
2023/10/15 14:04:36;;;;;;;4.03;1.50;;;;;;;;;;4212393;28;20048;-79
2023/10/15 14:06:38;;;;;;;2.97;1.30;;;;;;;;;;4212434;28;20184;-80
2023/10/15 14:08:41;;;;;;;4.70;1.35;;;;;;;;;;4211533;28;20083;-79
2023/10/15 14:10:46;;;;;;;3.53;1.10;;;;;;;;;;4212671;28;20055;-81
2023/10/15 14:12:49;;;;;;;5.18;1.27;;;;;;;;;;4211613;28;20138;-80
2023/10/15 14:14:50;;;;;;;3.67;1.02;;;;;;;;;;4212715;28;20048;-79
2023/10/15 14:16:52;;;;;;;6.00;1.10;;;;;;;;;;4218080;28;20040;-76
2023/10/15 14:18:54;;;;;;;6.30;1.40;;;;;;;;;;4230899;28;20048;-76
2023/10/15 14:20:57;;;;;;;4.15;1.65;;;;;;;;;;4223517;28;20060;-77
2023/10/15 14:23:00;;;;;;;4.18;1.50;;;;;;;;;;4219885;28;20550;-78
2023/10/15 14:25:03;;;;;;;4.65;1.73;;;;;;;;;;4219098;28;20044;-78
2023/10/15 14:27:06;;;;;;;4.45;1.63;;;;;;;;;;4218421;28;20052;-77
2023/10/15 14:29:08;;;;;;;5.57;1.77;;;;;;;;;;4219382;28;20374;-77
2023/10/15 14:31:11;;;;;;;3.88;1.13;;;;;;;;;;4218211;28;20047;-79
2023/10/15 14:33:12;;;;;;;3.85;1.02;;;;;;;;;;4215127;28;20051;-77
2023/10/15 14:35:15;;;;;;;4.70;1.25;;;;;;;;;;4216403;28;20138;-77
2023/10/15 14:37:17;;;;;;;4.00;1.17;;;;;;;;;;4215800;28;20052;-79
2023/10/15 14:39:22;;;;;;;3.55;1.20;;;;;;;;;;4202817;28;20129;-83
2023/10/15 14:41:25;;;;;;;4.72;1.38;;;;;;;;;;4206541;28;20051;-81
2023/10/15 14:43:29;;;;;;;4.35;1.20;;;;;;;;;;4203518;28;20048;-82
2023/10/15 14:45:31;;;;;;;3.35;1.10;;;;;;;;;;4202703;28;20105;-80
2023/10/15 14:47:33;;;;;;;3.67;1.40;;;;;;;;;;4210164;28;20045;-80
2023/10/15 14:49:36;;;;;;;4.55;1.77;;;;;;;;;;4202598;28;20051;-81
2023/10/15 14:51:38;;;;;;;3.50;1.63;;;;;;;;;;4213934;28;20055;-81
2023/10/15 14:53:40;;;;;;;4.75;1.70;;;;;;;;;;4209211;28;20044;-78
2023/10/15 14:55:45;;;;;;;3.80;2.75;;;;;;;;;;4206422;28;20084;-80
2023/10/15 14:57:47;;;;;;;4.45;3.75;;;;;;;;;;4208636;28;20044;-79
2023/10/15 14:59:51;;;;;;;4.95;4.45;;;;;;;;;;4214979;28;20059;-82
2023/10/15 15:01:53;;;;;;;4.75;4.30;;;;;;;;;;4211946;28;20044;-78
2023/10/15 15:03:56;;;;;;;4.28;3.40;;;;;;;;;;4213309;28;20067;-81
2023/10/15 15:05:59;;;;;;;3.97;3.50;;;;;;;;;;4215321;28;20446;-77
2023/10/15 15:08:02;;;;;;;4.25;1.80;;;;;;;;;;4214615;28;20109;-81
2023/10/15 15:10:06;;;;;;;2.60;0.90;;;;;;;;;;4214900;28;20094;-78
2023/10/15 15:12:09;;;;;;;2.25;0.80;;;;;;;;;;4213383;28;20052;-77
2023/10/15 15:14:13;;;;;;;4.22;1.17;;;;;;;;;;4214887;28;20048;-77
2023/10/15 15:16:17;;;;;;;4.03;0.90;;;;;;;;;;4214907;28;20237;-77
2023/10/15 15:18:20;;;;;;;4.15;1.00;;;;;;;;;;4215191;28;20458;-77
2023/10/15 15:20:22;;;;;;;3.00;0.90;;;;;;;;;;4214527;28;20044;-81
2023/10/15 15:22:26;;;;;;;2.80;0.77;;;;;;;;;;4213445;28;20052;-77
2023/10/15 15:24:29;;;;;;;2.10;0.75;;;;;;;;;;4219744;28;20750;-78
2023/10/15 15:26:32;;;;;;;2.78;0.80;;;;;;;;;;4231293;28;20048;-78
2023/10/15 15:28:35;;;;;;;4.38;0.90;;;;;;;;;;4229051;28;20043;-75
2023/10/15 15:30:37;;;;;;;3.55;1.17;;;;;;;;;;4213926;28;20063;-79
2023/10/15 15:32:42;;;;;;;3.75;0.90;;;;;;;;;;4204209;28;20056;-77
2023/10/15 15:34:45;;;;;;;4.97;1.20;;;;;;;;;;4214597;28;20125;-79
2023/10/15 15:36:47;;;;;;;2.65;0.82;;;;;;;;;;4214572;28;20044;-86
2023/10/15 15:38:49;;;;;;;4.38;1.10;;;;;;;;;;4210652;28;20048;-84
2023/10/15 15:40:52;;;;;;;4.53;1.10;;;;;;;;;;4214286;28;20089;-75
2023/10/15 15:42:54;;;;;;;2.17;0.73;;;;;;;;;;4214585;28;20104;-77
2023/10/15 15:44:56;;;;;;;2.50;0.80;;;;;;;;;;4214695;28;20071;-75
2023/10/15 15:46:58;;;;;;;5.03;1.15;;;;;;;;;;4224499;28;20044;-79
2023/10/15 15:49:03;;;;;;;3.47;1.15;;;;;;;;;;4233957;28;20044;-75
2023/10/15 15:51:07;;;;;;;4.72;3.28;;;;;;;;;;4216520;28;20052;-77
2023/10/15 15:53:09;;;;;;;2.95;1.00;;;;;;;;;;4215431;28;20079;-79
2023/10/15 15:55:12;;;;;;;3.70;1.02;;;;;;;;;;4214158;28;20036;-80
2023/10/15 15:57:14;;;;;;;2.47;0.80;;;;;;;;;;4203906;28;20094;-81
2023/10/15 15:59:18;;;;;;;3.28;1.05;;;;;;;;;;4197222;28;20051;-78
2023/10/15 16:01:22;;;;;;;3.83;1.00;;;;;;;;;;4200545;28;20056;-77
2023/10/15 16:03:25;;;;;;;3.85;1.00;;;;;;;;;;4231009;28;20055;-79
2023/10/15 16:05:28;;;;;;;3.45;1.00;;;;;;;;;;4230836;28;20044;-82
2023/10/15 16:07:30;;;;;;;3.40;0.93;;;;;;;;;;4230756;28;20058;-78
2023/10/15 16:09:35;;;;;;;2.40;0.88;;;;;;;;;;4215249;28;20093;-78
2023/10/15 16:11:37;;;;;;;3.75;1.10;;;;;;;;;;4214314;28;20044;-81
2023/10/15 16:13:40;;;;;;;3.05;1.00;;;;;;;;;;4214230;28;20052;-78
2023/10/15 16:15:42;;;;;;;3.92;1.10;;;;;;;;;;4212144;28;20082;-78
2023/10/15 16:17:44;;;;;;;3.97;1.20;;;;;;;;;;4213877;28;20106;-80
2023/10/15 16:19:51;;;;;;;2.70;0.80;;;;;;;;;;4216218;28;20139;-82
2023/10/15 16:21:55;;;;;;;5.55;1.20;;;;;;;;;;4197831;28;20066;-78
2023/10/15 16:23:57;;;;;;;4.65;1.00;;;;;;;;;;4198013;28;20052;-77
2023/10/15 16:26:00;;;;;;;3.50;1.33;;;;;;;;;;4207573;28;20051;-78
2023/10/15 16:28:02;;;;;;;3.22;0.80;;;;;;;;;;4196552;28;20071;-77
2023/10/15 16:30:05;;;;;;;3.58;1.10;;;;;;;;;;4203548;28;20044;-77
2023/10/15 16:32:07;;;;;;;3.33;1.00;;;;;;;;;;4208887;28;20102;-76
2023/10/15 16:34:10;;;;;;;4.45;1.17;;;;;;;;;;4199354;28;20056;-75
2023/10/15 16:36:12;;;;;;;3.92;1.05;;;;;;;;;;4207932;28;20052;-76
2023/10/15 16:38:16;;;;;;;4.25;1.30;;;;;;;;;;4205254;28;20072;-79
2023/10/15 16:40:18;;;;;;;4.45;1.15;;;;;;;;;;4210616;28;20094;-77
2023/10/15 16:42:20;;;;;;;5.72;1.40;;;;;;;;;;4203010;28;20055;-80
2023/10/15 16:44:22;;;;;;;4.63;1.10;;;;;;;;;;4201676;28;20129;-79
2023/10/15 16:46:27;;;;;;;3.97;1.33;;;;;;;;;;4208515;28;20064;-80
2023/10/15 16:48:29;;;;;;;6.68;2.95;;;;;;;;;;4214765;28;20070;-80
2023/10/15 16:50:31;;;;;;;4.57;1.70;;;;;;;;;;4206475;28;20193;-82
2023/10/15 16:52:34;;;;;;;4.78;1.60;;;;;;;;;;4215708;28;20044;-79
2023/10/15 16:54:37;;;;;;;4.22;1.20;;;;;;;;;;4217982;28;20110;-84
2023/10/15 16:56:39;;;;;;;4.38;1.30;;;;;;;;;;4216318;28;20048;-83
2023/10/15 16:58:42;;;;;;;4.55;1.20;;;;;;;;;;4215481;28;20117;-76
2023/10/15 17:00:45;;;;;;;4.03;1.10;;;;;;;;;;4229474;28;20500;-82
2023/10/15 17:02:47;;;;;;;4.15;1.38;;;;;;;;;;4232510;28;20047;-77
2023/10/15 17:04:51;;;;;;;3.00;1.20;;;;;;;;;;4221190;28;20106;-77
2023/10/15 17:06:53;;;;;;;5.35;1.45;;;;;;;;;;4215320;28;20126;-80
2023/10/15 17:08:56;;;;;;;6.10;1.40;;;;;;;;;;4214288;28;20048;-79
2023/10/15 17:10:59;;;;;;;4.28;1.45;;;;;;;;;;4214020;28;20048;-78
2023/10/15 17:13:01;;;;;;;4.03;1.20;;;;;;;;;;4197199;28;20094;-78
2023/10/15 17:15:04;;;;;;;4.38;1.40;;;;;;;;;;4208851;28;20036;-78
2023/10/15 17:17:09;;;;;;;6.43;1.50;;;;;;;;;;4212661;28;20451;-81
2023/10/15 17:19:11;;;;;;;3.95;1.35;;;;;;;;;;4212144;28;20044;-85
2023/10/15 17:21:14;;;;;;;4.25;1.17;;;;;;;;;;4210945;28;20040;-76
2023/10/15 17:23:16;;;;;;;5.43;1.60;;;;;;;;;;4205590;28;20135;-80
2023/10/15 17:25:18;;;;;;;2.85;1.02;;;;;;;;;;4205189;28;20165;-77
2023/10/15 17:27:22;;;;;;;3.40;1.25;;;;;;;;;;4201403;28;20056;-80
2023/10/15 17:29:25;;;;;;;4.18;1.20;;;;;;;;;;4218721;28;20459;-78
2023/10/15 17:31:27;;;;;;;5.65;1.30;;;;;;;;;;4198810;28;20054;-81
2023/10/15 17:33:28;;;;;;;4.22;1.45;;;;;;;;;;4204867;28;20125;-77
2023/10/15 17:35:31;;;;;;;4.88;1.20;;;;;;;;;;4212483;28;20066;-85
2023/10/15 17:37:33;;;;;;;5.47;1.58;;;;;;;;;;4212702;28;20552;-82
2023/10/15 17:39:38;;;;;;;5.80;2.05;;;;;;;;;;4219400;28;20047;-81
2023/10/15 17:41:40;;;;;;;4.10;1.48;;;;;;;;;;4223478;28;20477;-78
2023/10/15 17:43:44;;;;;;;4.63;1.67;;;;;;;;;;4205393;28;20485;-88
2023/10/15 17:45:47;;;;;;;3.40;1.23;;;;;;;;;;4198505;28;20048;-79
2023/10/15 17:47:50;;;;;;;5.72;1.70;;;;;;;;;;4195159;28;20036;-79
2023/10/15 17:49:52;;;;;;;7.60;1.80;;;;;;;;;;4206069;28;20066;-78
2023/10/15 17:51:54;;;;;;;3.30;1.40;;;;;;;;;;4211291;28;20056;-86
2023/10/15 17:53:56;;;;;;;4.00;1.40;;;;;;;;;;4220057;28;20048;-88
2023/10/15 17:55:59;;;;;;;4.68;1.30;;;;;;;;;;4219388;28;20052;-85
2023/10/15 17:58:01;;;;;;;5.50;1.80;;;;;;;;;;4207505;28;20110;-82
2023/10/15 18:00:11;;;;;;;3.35;1.40;;;;;;;;;;4217975;28;20048;-83
2023/10/15 18:02:15;;;;;;;5.30;1.55;;;;;;;;;;4226879;28;20110;-88
2023/10/15 18:04:17;;;;;;;4.28;1.73;;;;;;;;;;4231629;28;20071;-79
2023/10/15 18:06:20;;;;;;;3.72;1.20;;;;;;;;;;4231569;28;20079;-81
2023/10/15 18:08:23;;;;;;;4.88;1.90;;;;;;;;;;4231152;28;20052;-77
2023/10/15 18:10:25;;;;;;;5.70;1.83;;;;;;;;;;4231391;28;20048;-82
2023/10/15 18:12:28;;;;;;;5.07;1.83;;;;;;;;;;4224172;28;20056;-80
2023/10/15 18:14:30;;;;;;;6.20;2.00;;;;;;;;;;4206606;28;20070;-80
2023/10/15 18:16:34;;;;;;;5.30;1.70;;;;;;;;;;4213880;28;20048;-80
2023/10/15 18:18:35;;;;;;;5.95;1.85;;;;;;;;;;4212054;28;20044;-84
2023/10/15 18:20:37;;;;;;;4.95;1.60;;;;;;;;;;4217616;28;20040;-82